Weather at Kidwell Airport

Public forecast

Using degrees Fahrenheit for public forecast. Weather courtesy of forecast.io.

Closest aviation weather report (METAR) to Kidwell Airport

Closest report is Laughlin Bullhead International Airport, 18.2 nm (33.6 km) ESE. Retrieved 2021/06/16 19:52 UTC (46 minutes ago):

KIFP 161952Z 20012KT 10SM SCT140 45/01 A2976

Closest aviation forecast (TAF) to Kidwell Airport

Closest forecast is Laughlin Bullhead International Airport, 18.2 nm (33.6 km) ESE. Retrieved 2021/06/16 18:22 UTC (2 hours ago):

TAF KIFP 161720Z 1618/1718 19013KT P6SM SCT250 FM170400 16007KT P6SM SCT250 FM171100 VRB05KT P6SM FEW200 BKN250